x

South Bass Island, Oh (sbio1) Weather Station

11:00pm - Mon 1st Sep 2014 All times are CDT. -5 hours from GMT.

  • Wind
    14mph, 15mph gusts
  • Air Temp 77°f
  • Sea Pressure 1011.2mb
  • South Bass Island, Oh
  • South Bass Island, Oh

More Historic Weather Station data

Upgrade to MSW Pro to gain access to the past 30 days of data for over 8000 Wavebouys and Weather Stations around the globe.

Join Pro

Comparision Forecast

View Surf forecast
   
Mon 09/01 11:00pm 14 15 mph 1011.2mb 77f
10:00pm 13 15 mph 1010.9mb 77f
9:00pm 16 18 mph 1010.5mb 77f
8:00pm 15 16 mph 1009.8mb 77f
7:00pm 18 21 mph 1009.3mb 77f
6:00pm 21 23 mph 1008.5mb 82f
5:00pm 20 22 mph 1008.4mb 82f
4:00pm 20 21 mph 1009mb 82f
3:00pm 21 22 mph 1009.4mb 83f
2:00pm 20 23 mph 1009.9mb 82f
1:00pm 14 17 mph 1010.8mb 81f
12:00pm 14 16 mph 1011.9mb 78f
11:00am 20 22 mph 1012.6mb 76f
10:00am 20 22 mph 1013mb 76f
9:00am 11 15 mph 1013.3mb 75f
8:00am 14 16 mph 1013.7mb 73f
7:00am 16 17 mph 1013.9mb 73f
6:00am 14 15 mph 1013.6mb 73f
5:00am 13 16 mph 1013.8mb 73f
4:00am 13 14 mph 1013.9mb 73f
3:00am 15 17 mph 1013.9mb 73f
2:00am 15 16 mph 1014.2mb 74f
1:00am 15 16 mph 1014.1mb 74f
12:00am 15 17 mph 1013.8mb 74f
Sun 08/31 11:00pm 11 13 mph 1013.7mb 75f
10:00pm 10 13 mph 1014mb 76f
9:00pm 6 9 mph 1014mb 77f
8:00pm 8 9 mph 1013.9mb 77f
7:00pm 7 8 mph 1013.6mb 79f
6:00pm 6 7 mph 1013.4mb 81f
5:00pm 7 8 mph 1013.7mb 82f
4:00pm  -  1 mph 1013.8mb 84f
3:00pm 7 8 mph 1014.1mb 78f
2:00pm 11 13 mph 1014.5mb 78f
1:00pm 10 11 mph 1014.9mb 78f
12:00pm 10 11 mph 1015.3mb 75f
11:00am 14 15 mph 1015.3mb 74f
10:00am 16 18 mph 1015.4mb 73f
9:00am 15 16 mph 1015.4mb 73f
8:00am 16 17 mph 1015.1mb 73f
7:00am 15 17 mph 1014.8mb 73f
6:00am 20 22 mph 1014.2mb 74f
5:00am 18 21 mph 1013.9mb 74f
4:00am 16 20 mph 1014.1mb 74f
3:00am 17 20 mph 1014mb 75f
2:00am 18 21 mph 1014.3mb 76f
1:00am 16 18 mph 1014.5mb 76f
12:00am 17 21 mph 1014.4mb 76f
Sat 08/30 11:00pm 16 20 mph 1014.4mb 77f
10:00pm 14 16 mph 1014.1mb 77f
9:00pm 17 18 mph 1014.1mb 78f
8:00pm 18 21 mph 1013.7mb 78f
7:00pm 23 26 mph 1013mb 78f
6:00pm 26 31 mph 1012.9mb 80f
5:00pm 26 29 mph 1012.7mb 81f
4:00pm 30 34 mph 1013mb 82f
3:00pm 18 22 mph 1013.8mb 76f
2:00pm 23 24 mph 1014.1mb 81f
1:00pm 20 21 mph 1014.3mb 81f
12:00pm 18 21 mph 1014.6mb 81f
11:00am 15 16 mph 1015mb 80f
10:00am 17 18 mph 1015.3mb 79f
9:00am 17 18 mph 1015.5mb 78f
8:00am 17 18 mph 1015.6mb 76f
7:00am 18 21 mph 1015.7mb 74f
6:00am 20 23 mph 1015.6mb 74f
5:00am 17 21 mph 1015.4mb 74f
4:00am 18 22 mph 1015.5mb 74f
3:00am 18 22 mph 1015.3mb 75f
2:00am 16 21 mph 1015.6mb 74f
1:00am 13 15 mph 1016.3mb 73f
12:00am 14 16 mph 1016.9mb 74f
Fri 08/29 11:00pm 16 18 mph 1016.9mb 74f
10:00pm 16 18 mph 1016.6mb 75f
9:00pm 17 20 mph 1017mb 74f
8:00pm 13 15 mph 1017.1mb 73f
7:00pm 14 17 mph 1016.8mb 73f
6:00pm 8 13 mph 1017.3mb 74f
5:00pm 8 11 mph 1017.5mb 75f
4:00pm 9 13 mph 1017.8mb 74f
3:00pm 5 8 mph 1018.3mb 75f
2:00pm 6 7 mph 1018.9mb 74f
1:00pm 6 8 mph 1019.6mb 73f
12:00pm 8 9 mph 1019.6mb 72f
11:00am 10 11 mph 1020.3mb 70f
10:00am 13 14 mph 1020.6mb 68f
9:00am 10 13 mph 1020.9mb 67f
8:00am 16 18 mph 1020.7mb 64f
7:00am 17 21 mph 1020.5mb 65f
6:00am 20 21 mph 1020.3mb 65f